Time;durP1;ratioP1;P1;durP2;ratioP2;P2;SDS_P1;SDS_P2;PMS_P1;PMS_P2;Temp;Humidity;BMP_temperature;BMP_pressure;BME280_temperature;BME280_humidity;BME280_pressure;Samples;Min_cycle;Max_cycle;Signal;HPM_P1;HPM_P2
2024/03/15 00:01:19;;;;;;;26.13;16.17;;;;;;;;;;5070000;28;20028;-76
2024/03/15 00:03:45;;;;;;;29.88;18.25;;;;;;;;;;5070442;28;20714;-75
2024/03/15 00:06:13;;;;;;;26.45;17.25;;;;;;;;;;5071842;28;20037;-76
2024/03/15 00:08:39;;;;;;;30.33;18.15;;;;;;;;;;5069861;28;20488;-76
2024/03/15 00:11:04;;;;;;;25.52;16.30;;;;;;;;;;5069773;28;20032;-75
2024/03/15 00:13:29;;;;;;;25.45;15.75;;;;;;;;;;5069491;28;20142;-76
2024/03/15 00:15:54;;;;;;;29.83;16.50;;;;;;;;;;5072795;28;20029;-75
2024/03/15 00:18:20;;;;;;;24.13;15.45;;;;;;;;;;5071984;28;20032;-76
2024/03/15 00:20:45;;;;;;;29.27;17.33;;;;;;;;;;5073538;28;20028;-76
2024/03/15 00:23:11;;;;;;;26.90;16.48;;;;;;;;;;5076435;28;20024;-76
2024/03/15 00:25:36;;;;;;;27.83;16.95;;;;;;;;;;5076483;28;20552;-76
2024/03/15 00:28:02;;;;;;;29.20;17.05;;;;;;;;;;5073646;28;20493;-76
2024/03/15 00:30:27;;;;;;;25.10;17.05;;;;;;;;;;5073374;28;20107;-76
2024/03/15 00:32:53;;;;;;;24.33;15.45;;;;;;;;;;5073195;28;20039;-76
2024/03/15 00:35:19;;;;;;;29.40;17.73;;;;;;;;;;5075916;28;20033;-76
2024/03/15 00:37:45;;;;;;;27.48;17.48;;;;;;;;;;5073449;28;20559;-75
2024/03/15 00:40:11;;;;;;;27.67;17.13;;;;;;;;;;5073125;28;20032;-76
2024/03/15 00:42:37;;;;;;;31.33;17.77;;;;;;;;;;5078876;28;20024;-76
2024/03/15 00:45:02;;;;;;;25.98;15.82;;;;;;;;;;5075840;28;20036;-75
2024/03/15 00:47:28;;;;;;;27.27;17.20;;;;;;;;;;5073139;28;20029;-76
2024/03/15 00:49:53;;;;;;;26.58;17.08;;;;;;;;;;5073122;28;20408;-76
2024/03/15 00:52:19;;;;;;;37.28;16.10;;;;;;;;;;5075456;28;20040;-76
2024/03/15 00:54:45;;;;;;;27.95;16.75;;;;;;;;;;5075470;28;20032;-75
2024/03/15 00:57:11;;;;;;;25.80;16.67;;;;;;;;;;5073904;28;20026;-75
2024/03/15 00:59:36;;;;;;;27.50;18.05;;;;;;;;;;5073092;28;20024;-75
2024/03/15 01:02:01;;;;;;;28.42;17.17;;;;;;;;;;5081765;28;20586;-75
2024/03/15 01:04:29;;;;;;;33.10;18.92;;;;;;;;;;5075037;28;20100;-75
2024/03/15 01:06:54;;;;;;;25.40;16.63;;;;;;;;;;5071710;28;20481;-75
2024/03/15 01:09:20;;;;;;;30.60;17.60;;;;;;;;;;5077898;28;20040;-75
2024/03/15 01:11:46;;;;;;;26.45;16.63;;;;;;;;;;5072336;28;20029;-75
2024/03/15 01:14:11;;;;;;;27.85;16.85;;;;;;;;;;5074736;28;20043;-75
2024/03/15 01:16:37;;;;;;;32.72;18.30;;;;;;;;;;5074066;28;20109;-75
2024/03/15 01:19:04;;;;;;;29.80;18.52;;;;;;;;;;5073816;28;20165;-75
2024/03/15 01:21:29;;;;;;;31.58;19.23;;;;;;;;;;5076643;28;20029;-75
2024/03/15 01:23:54;;;;;;;27.88;17.75;;;;;;;;;;5075045;28;20025;-75
2024/03/15 01:26:20;;;;;;;30.42;18.90;;;;;;;;;;5077168;28;20035;-75
2024/03/15 01:28:45;;;;;;;31.30;19.10;;;;;;;;;;5071812;28;20032;-75
2024/03/15 01:31:10;;;;;;;27.25;17.15;;;;;;;;;;5071942;28;20374;-75
2024/03/15 01:33:35;;;;;;;33.60;19.70;;;;;;;;;;5072067;28;20706;-75
2024/03/15 01:36:01;;;;;;;25.85;16.90;;;;;;;;;;5074229;28;20036;-75
2024/03/15 01:38:26;;;;;;;30.45;19.05;;;;;;;;;;5071004;28;20028;-75
2024/03/15 01:40:52;;;;;;;29.83;18.70;;;;;;;;;;5072227;28;20056;-75
2024/03/15 01:43:17;;;;;;;40.67;23.15;;;;;;;;;;5080456;28;20036;-75
2024/03/15 01:45:42;;;;;;;26.63;16.40;;;;;;;;;;5073961;28;20082;-75
2024/03/15 01:48:08;;;;;;;40.60;22.98;;;;;;;;;;5072060;28;20450;-75
2024/03/15 01:50:34;;;;;;;31.50;20.45;;;;;;;;;;5078390;28;20734;-75
2024/03/15 01:53:00;;;;;;;27.42;18.25;;;;;;;;;;5073662;28;20028;-75
2024/03/15 01:55:27;;;;;;;31.45;19.48;;;;;;;;;;5073576;28;20051;-75
2024/03/15 01:57:53;;;;;;;31.00;18.30;;;;;;;;;;5070596;28;20547;-75
2024/03/15 02:00:19;;;;;;;29.13;17.63;;;;;;;;;;5071565;28;20040;-75
2024/03/15 02:02:44;;;;;;;26.45;16.20;;;;;;;;;;5071439;28;20036;-75
2024/03/15 02:05:14;;;;;;;24.55;15.95;;;;;;;;;;5073351;28;20021;-75
2024/03/15 02:07:40;;;;;;;26.85;16.35;;;;;;;;;;5071755;28;20525;-76
2024/03/15 02:10:12;;;;;;;29.77;16.88;;;;;;;;;;5071570;28;20032;-75
2024/03/15 02:12:38;;;;;;;27.85;18.65;;;;;;;;;;5071374;28;20044;-75
2024/03/15 02:15:04;;;;;;;23.70;14.55;;;;;;;;;;5071762;28;20031;-74
2024/03/15 02:17:29;;;;;;;25.38;16.65;;;;;;;;;;5071306;28;20035;-75
2024/03/15 02:19:54;;;;;;;26.70;16.20;;;;;;;;;;5071611;28;20032;-74
2024/03/15 02:22:19;;;;;;;24.00;15.25;;;;;;;;;;5072306;28;20038;-75
2024/03/15 02:24:45;;;;;;;25.95;16.70;;;;;;;;;;5072586;28;20028;-74
2024/03/15 02:27:13;;;;;;;30.08;18.80;;;;;;;;;;5069939;28;20017;-75
2024/03/15 02:29:40;;;;;;;27.10;17.42;;;;;;;;;;5076018;28;20032;-75
2024/03/15 02:32:06;;;;;;;24.38;16.45;;;;;;;;;;5070573;28;20032;-74
2024/03/15 02:34:31;;;;;;;26.67;17.30;;;;;;;;;;5076433;28;20500;-74
2024/03/15 02:36:57;;;;;;;24.38;15.18;;;;;;;;;;5071179;28;20024;-74
2024/03/15 02:39:24;;;;;;;32.08;16.92;;;;;;;;;;5071002;28;20508;-75
2024/03/15 02:41:50;;;;;;;26.55;17.70;;;;;;;;;;5070472;28;20025;-75
2024/03/15 02:44:15;;;;;;;28.83;17.40;;;;;;;;;;5071858;28;20021;-75
2024/03/15 02:46:41;;;;;;;25.42;15.90;;;;;;;;;;5078465;28;20131;-75
2024/03/15 02:49:06;;;;;;;24.73;15.60;;;;;;;;;;5071177;28;20028;-75
2024/03/15 02:51:31;;;;;;;31.45;19.17;;;;;;;;;;5070712;28;20464;-75
2024/03/15 02:53:56;;;;;;;27.05;16.08;;;;;;;;;;5075425;28;20560;-75
2024/03/15 02:56:21;;;;;;;27.00;16.48;;;;;;;;;;5076201;28;20039;-74
2024/03/15 02:58:47;;;;;;;25.90;16.50;;;;;;;;;;5070633;28;20039;-74
2024/03/15 03:01:12;;;;;;;26.98;17.13;;;;;;;;;;5069099;28;20028;-74
2024/03/15 03:03:37;;;;;;;23.98;16.40;;;;;;;;;;5070415;28;20027;-74
2024/03/15 03:06:06;;;;;;;24.42;15.45;;;;;;;;;;5071320;28;20416;-74
2024/03/15 03:08:31;;;;;;;24.92;15.98;;;;;;;;;;5074767;28;20063;-73
2024/03/15 03:10:56;;;;;;;25.90;17.20;;;;;;;;;;5070489;28;20052;-74
2024/03/15 03:13:22;;;;;;;31.25;18.40;;;;;;;;;;5075002;28;20035;-73
2024/03/15 03:15:47;;;;;;;29.10;19.35;;;;;;;;;;5070935;28;20036;-74
2024/03/15 03:18:13;;;;;;;25.33;16.27;;;;;;;;;;5076803;28;20460;-74
2024/03/15 03:20:39;;;;;;;28.50;18.67;;;;;;;;;;5070258;28;20016;-74
2024/03/15 03:23:04;;;;;;;27.45;17.67;;;;;;;;;;5074427;28;20393;-73
2024/03/15 03:25:31;;;;;;;34.80;19.92;;;;;;;;;;5077243;28;20139;-74
2024/03/15 03:27:56;;;;;;;29.80;18.05;;;;;;;;;;5070231;28;20029;-74
2024/03/15 03:30:21;;;;;;;31.40;18.48;;;;;;;;;;5070102;28;20044;-74
2024/03/15 03:32:47;;;;;;;29.77;17.55;;;;;;;;;;5069977;28;20420;-74
2024/03/15 03:35:12;;;;;;;21.20;13.90;;;;;;;;;;5070366;28;20103;-74
2024/03/15 03:37:37;;;;;;;31.55;17.98;;;;;;;;;;5071250;28;20166;-74
2024/03/15 03:40:07;;;;;;;28.02;16.65;;;;;;;;;;5073981;28;20884;-73
2024/03/15 03:42:32;;;;;;;28.52;17.73;;;;;;;;;;5073981;28;20051;-73
2024/03/15 03:44:58;;;;;;;29.00;16.75;;;;;;;;;;5070108;28;20060;-74
2024/03/15 03:47:23;;;;;;;22.50;14.95;;;;;;;;;;5069979;28;20082;-74
2024/03/15 03:49:50;;;;;;;29.45;17.98;;;;;;;;;;5070035;28;20506;-74
2024/03/15 03:52:15;;;;;;;21.23;14.30;;;;;;;;;;5072933;28;20036;-74
2024/03/15 03:54:41;;;;;;;28.17;16.98;;;;;;;;;;5070077;28;20035;-74
2024/03/15 03:57:06;;;;;;;23.63;15.15;;;;;;;;;;5068752;28;20067;-73
2024/03/15 03:59:31;;;;;;;21.52;13.73;;;;;;;;;;5069784;28;20036;-74
2024/03/15 04:01:56;;;;;;;20.60;14.18;;;;;;;;;;5069439;28;20062;-74
2024/03/15 04:04:21;;;;;;;22.15;14.55;;;;;;;;;;5069755;28;20032;-74
2024/03/15 04:06:51;;;;;;;20.80;13.73;;;;;;;;;;5069888;28;20040;-74
2024/03/15 04:09:16;;;;;;;20.40;13.60;;;;;;;;;;5068650;28;20079;-74
2024/03/15 04:11:42;;;;;;;23.17;14.00;;;;;;;;;;5069990;28;20036;-74
2024/03/15 04:14:08;;;;;;;19.40;11.90;;;;;;;;;;5069036;28;20107;-73
2024/03/15 04:16:34;;;;;;;20.85;13.93;;;;;;;;;;5076349;28;20550;-73
2024/03/15 04:18:59;;;;;;;20.10;13.13;;;;;;;;;;5069820;28;20036;-74
2024/03/15 04:21:24;;;;;;;28.50;15.00;;;;;;;;;;5069440;28;20048;-74
2024/03/15 04:23:49;;;;;;;25.23;15.48;;;;;;;;;;5072583;28;20158;-73
2024/03/15 04:26:15;;;;;;;27.60;15.30;;;;;;;;;;5077117;28;20025;-73
2024/03/15 04:28:41;;;;;;;21.50;13.23;;;;;;;;;;5082769;28;20404;-73
2024/03/15 04:31:07;;;;;;;21.75;13.57;;;;;;;;;;5069455;28;20062;-73
2024/03/15 04:33:32;;;;;;;24.25;14.90;;;;;;;;;;5069252;28;20063;-74
2024/03/15 04:36:04;;;;;;;21.08;13.13;;;;;;;;;;5074091;28;20123;-74
2024/03/15 04:38:29;;;;;;;21.50;13.97;;;;;;;;;;5074019;28;20067;-74
2024/03/15 04:40:54;;;;;;;22.55;13.57;;;;;;;;;;5073589;28;20318;-74
2024/03/15 04:43:19;;;;;;;23.35;14.52;;;;;;;;;;5069035;28;20037;-74
2024/03/15 04:45:45;;;;;;;21.08;12.57;;;;;;;;;;5074904;28;20040;-74
2024/03/15 04:48:10;;;;;;;21.48;13.48;;;;;;;;;;5078797;28;20028;-74
2024/03/15 04:50:35;;;;;;;20.50;11.95;;;;;;;;;;5069259;28;20032;-74
2024/03/15 04:53:00;;;;;;;20.55;13.43;;;;;;;;;;5070765;28;20029;-74
2024/03/15 04:55:26;;;;;;;20.98;13.20;;;;;;;;;;5075813;28;20032;-75
2024/03/15 04:57:51;;;;;;;19.15;12.02;;;;;;;;;;5069376;28;20028;-74
2024/03/15 05:00:19;;;;;;;17.58;11.45;;;;;;;;;;5069053;28;20036;-75
2024/03/15 05:02:48;;;;;;;22.63;13.00;;;;;;;;;;5071963;28;20546;-75
2024/03/15 05:05:14;;;;;;;20.67;12.90;;;;;;;;;;5078538;28;20032;-75
2024/03/15 05:07:39;;;;;;;19.35;11.80;;;;;;;;;;5076368;28;20490;-74
2024/03/15 05:10:06;;;;;;;18.23;11.90;;;;;;;;;;5072861;28;20121;-74
2024/03/15 05:12:31;;;;;;;17.52;11.82;;;;;;;;;;5072348;28;20392;-74
2024/03/15 05:14:56;;;;;;;21.50;12.95;;;;;;;;;;5078123;28;20028;-75
2024/03/15 05:17:22;;;;;;;20.77;12.23;;;;;;;;;;5073657;28;20106;-74
2024/03/15 05:19:47;;;;;;;19.30;12.70;;;;;;;;;;5081399;28;20484;-74
2024/03/15 05:22:12;;;;;;;18.20;11.95;;;;;;;;;;5081727;28;20032;-74
2024/03/15 05:24:37;;;;;;;18.17;11.38;;;;;;;;;;5082225;28;20026;-74
2024/03/15 05:27:02;;;;;;;18.08;12.32;;;;;;;;;;5082782;28;20028;-74
2024/03/15 05:29:29;;;;;;;22.08;13.27;;;;;;;;;;5082895;28;20665;-74
2024/03/15 05:31:54;;;;;;;21.88;12.15;;;;;;;;;;5082410;28;20031;-74
2024/03/15 05:34:20;;;;;;;21.17;12.10;;;;;;;;;;5085974;28;20035;-74
2024/03/15 05:36:45;;;;;;;18.30;11.80;;;;;;;;;;5083928;28;20074;-74
2024/03/15 05:39:10;;;;;;;21.02;11.57;;;;;;;;;;5084292;28;20392;-74
2024/03/15 05:41:36;;;;;;;19.67;12.85;;;;;;;;;;5078726;28;20493;-74
2024/03/15 05:44:04;;;;;;;20.58;11.60;;;;;;;;;;5082876;28;20032;-74
2024/03/15 05:46:29;;;;;;;24.42;15.85;;;;;;;;;;5078772;28;20088;-74
2024/03/15 05:48:55;;;;;;;22.38;13.77;;;;;;;;;;5082823;28;20052;-74
2024/03/15 05:51:21;;;;;;;20.17;12.50;;;;;;;;;;5086194;28;20047;-74
2024/03/15 05:53:47;;;;;;;15.82;10.45;;;;;;;;;;5074824;28;20035;-75
2024/03/15 05:56:12;;;;;;;20.25;12.68;;;;;;;;;;5079365;28;20029;-74
2024/03/15 05:58:37;;;;;;;17.05;11.68;;;;;;;;;;5074511;28;20059;-74
2024/03/15 06:01:03;;;;;;;24.80;14.45;;;;;;;;;;5070586;28;20044;-74
2024/03/15 06:03:28;;;;;;;19.20;12.48;;;;;;;;;;5071557;28;20064;-74
2024/03/15 06:05:54;;;;;;;19.98;13.70;;;;;;;;;;5076858;28;20101;-74
2024/03/15 06:08:19;;;;;;;25.00;14.98;;;;;;;;;;5071016;28;20086;-74
2024/03/15 06:10:45;;;;;;;19.83;13.93;;;;;;;;;;5071014;28;20152;-74
2024/03/15 06:13:10;;;;;;;19.67;12.27;;;;;;;;;;5070584;28;20039;-74
2024/03/15 06:15:37;;;;;;;18.17;11.98;;;;;;;;;;5077219;28;20024;-73
2024/03/15 06:18:03;;;;;;;20.70;12.90;;;;;;;;;;5071353;28;20067;-74
2024/03/15 06:20:28;;;;;;;17.15;11.70;;;;;;;;;;5070807;28;20118;-74
2024/03/15 06:22:53;;;;;;;17.75;10.45;;;;;;;;;;5076710;28;20036;-74
2024/03/15 06:25:19;;;;;;;18.60;10.98;;;;;;;;;;5077717;28;20028;-74
2024/03/15 06:27:45;;;;;;;16.85;11.02;;;;;;;;;;5071150;28;20047;-73
2024/03/15 06:30:14;;;;;;;18.33;11.40;;;;;;;;;;5071291;28;20422;-74
2024/03/15 06:32:39;;;;;;;17.75;10.77;;;;;;;;;;5079015;28;20036;-74
2024/03/15 06:35:18;;;;;;;17.42;9.93;;;;;;;;;;5081501;28;20038;-74
2024/03/15 06:37:44;;;;;;;19.13;11.35;;;;;;;;;;5075376;28;20040;-74
2024/03/15 06:40:18;;;;;;;19.70;10.73;;;;;;;;;;5069648;28;20028;-74
2024/03/15 06:45:44;;;;;;;18.95;11.88;;;;;;;;;;5080321;28;20547;-75
2024/03/15 06:48:17;;;;;;;16.10;10.85;;;;;;;;;;5072008;28;20029;-74
2024/03/15 06:50:48;;;;;;;16.90;10.90;;;;;;;;;;5077718;28;20032;-75
2024/03/15 06:53:18;;;;;;;19.60;11.30;;;;;;;;;;5080773;28;20032;-73
2024/03/15 06:55:43;;;;;;;16.90;10.85;;;;;;;;;;5081506;28;20033;-74
2024/03/15 06:58:09;;;;;;;14.60;10.15;;;;;;;;;;5070962;28;20378;-74
2024/03/15 07:00:35;;;;;;;17.90;11.23;;;;;;;;;;5074401;28;20032;-74
2024/03/15 07:03:01;;;;;;;16.17;10.35;;;;;;;;;;5075271;28;20024;-73
2024/03/15 07:05:28;;;;;;;17.83;11.20;;;;;;;;;;5076319;28;20036;-73
2024/03/15 07:07:53;;;;;;;21.05;10.55;;;;;;;;;;5070557;28;20237;-74
2024/03/15 07:10:18;;;;;;;15.35;9.57;;;;;;;;;;5074347;28;20028;-75
2024/03/15 07:12:46;;;;;;;15.50;10.00;;;;;;;;;;5072524;28;20359;-74
2024/03/15 07:15:11;;;;;;;15.52;10.20;;;;;;;;;;5078537;28;20031;-74
2024/03/15 07:17:36;;;;;;;16.48;11.13;;;;;;;;;;5078938;28;20412;-74
2024/03/15 07:20:07;;;;;;;16.70;11.80;;;;;;;;;;5070376;28;20029;-74
2024/03/15 07:22:33;;;;;;;21.27;12.60;;;;;;;;;;5074558;28;20031;-74
2024/03/15 07:24:59;;;;;;;17.85;12.30;;;;;;;;;;5072268;28;20020;-75
2024/03/15 07:27:25;;;;;;;18.70;11.45;;;;;;;;;;5078692;28;20024;-75
2024/03/15 07:29:50;;;;;;;18.88;11.77;;;;;;;;;;5075824;28;20485;-74
2024/03/15 07:32:15;;;;;;;14.20;9.40;;;;;;;;;;5071759;28;20040;-74
2024/03/15 07:34:40;;;;;;;16.95;9.77;;;;;;;;;;5074502;28;20031;-74
2024/03/15 07:37:06;;;;;;;15.18;9.93;;;;;;;;;;5074430;28;20028;-74
2024/03/15 07:39:32;;;;;;;12.95;9.13;;;;;;;;;;5070058;28;20036;-74
2024/03/15 07:42:00;;;;;;;21.50;14.25;;;;;;;;;;5069654;28;20028;-74
2024/03/15 07:44:26;;;;;;;17.27;10.15;;;;;;;;;;5069855;28;20035;-74
2024/03/15 07:46:51;;;;;;;16.45;11.50;;;;;;;;;;5075533;28;20029;-74
2024/03/15 07:49:16;;;;;;;18.50;12.30;;;;;;;;;;5070125;28;20052;-75
2024/03/15 07:51:44;;;;;;;15.88;10.90;;;;;;;;;;5070262;28;20452;-75
2024/03/15 07:54:09;;;;;;;14.68;10.50;;;;;;;;;;5074033;28;20032;-74
2024/03/15 07:56:35;;;;;;;17.38;11.82;;;;;;;;;;5074373;28;20032;-74
2024/03/15 07:59:01;;;;;;;15.65;10.23;;;;;;;;;;5070013;28;20550;-74
2024/03/15 08:01:26;;;;;;;15.63;10.77;;;;;;;;;;5069617;28;20135;-75
2024/03/15 08:03:52;;;;;;;13.05;8.23;;;;;;;;;;5075214;28;20059;-74
2024/03/15 08:06:18;;;;;;;15.77;10.52;;;;;;;;;;5076349;28;20036;-74
2024/03/15 08:08:43;;;;;;;11.90;8.85;;;;;;;;;;5076666;28;20484;-75
2024/03/15 08:11:08;;;;;;;13.45;10.15;;;;;;;;;;5071420;28;20506;-74
2024/03/15 08:13:33;;;;;;;13.25;8.70;;;;;;;;;;5069277;28;20472;-73
2024/03/15 08:18:45;;;;;;;12.63;8.98;;;;;;;;;;5073815;28;20037;-74
2024/03/15 08:21:10;;;;;;;12.90;8.15;;;;;;;;;;5072658;28;20040;-74
2024/03/15 08:23:37;;;;;;;13.95;8.85;;;;;;;;;;5073140;28;20028;-74
2024/03/15 08:26:02;;;;;;;14.35;8.73;;;;;;;;;;5072872;28;20029;-74
2024/03/15 08:28:31;;;;;;;10.38;7.38;;;;;;;;;;5075988;28;20078;-74
2024/03/15 08:30:56;;;;;;;12.65;9.35;;;;;;;;;;5071869;28;20043;-74
2024/03/15 08:33:21;;;;;;;12.43;9.10;;;;;;;;;;5072595;28;20036;-75
2024/03/15 08:35:46;;;;;;;12.60;8.82;;;;;;;;;;5073920;28;20028;-74
2024/03/15 08:38:13;;;;;;;16.33;9.98;;;;;;;;;;5081961;28;20077;-74
2024/03/15 08:40:38;;;;;;;12.65;8.95;;;;;;;;;;5075837;28;20024;-74
2024/03/15 08:43:04;;;;;;;11.48;8.05;;;;;;;;;;5072985;28;20021;-74
2024/03/15 08:45:29;;;;;;;13.98;8.75;;;;;;;;;;5077732;28;20044;-74
2024/03/15 08:47:54;;;;;;;12.38;8.88;;;;;;;;;;5073204;28;20021;-74
2024/03/15 08:50:20;;;;;;;11.20;7.82;;;;;;;;;;5078070;28;20085;-75
2024/03/15 08:52:46;;;;;;;12.15;8.02;;;;;;;;;;5085415;28;20086;-75
2024/03/15 08:55:13;;;;;;;10.15;7.18;;;;;;;;;;5080470;28;20028;-74
2024/03/15 08:57:39;;;;;;;13.73;8.43;;;;;;;;;;5078604;28;20024;-75
2024/03/15 09:00:12;;;;;;;11.55;8.43;;;;;;;;;;5072885;28;20024;-75
2024/03/15 09:02:40;;;;;;;11.10;8.32;;;;;;;;;;5071629;28;20025;-74
2024/03/15 09:05:08;;;;;;;14.60;8.90;;;;;;;;;;5076930;28;20032;-74
2024/03/15 09:07:37;;;;;;;12.13;8.77;;;;;;;;;;5073384;28;20035;-74
2024/03/15 09:10:07;;;;;;;10.45;7.85;;;;;;;;;;5077213;28;20508;-74
2024/03/15 09:12:33;;;;;;;11.38;7.97;;;;;;;;;;5072344;28;20489;-75
2024/03/15 09:14:58;;;;;;;12.63;7.47;;;;;;;;;;5082986;28;20025;-74
2024/03/15 09:17:23;;;;;;;12.30;8.35;;;;;;;;;;5074838;28;20492;-74
2024/03/15 09:19:53;;;;;;;16.15;11.90;;;;;;;;;;5072855;28;20039;-74
2024/03/15 09:22:18;;;;;;;18.00;12.05;;;;;;;;;;5076862;28;20038;-74
2024/03/15 09:24:43;;;;;;;18.35;11.77;;;;;;;;;;5072199;28;20028;-74
2024/03/15 09:27:09;;;;;;;23.77;14.45;;;;;;;;;;5076444;28;20039;-74
2024/03/15 09:29:34;;;;;;;19.27;12.20;;;;;;;;;;5072468;28;20074;-74
2024/03/15 09:32:00;;;;;;;18.80;11.65;;;;;;;;;;5072972;28;20033;-74
2024/03/15 09:34:27;;;;;;;18.65;11.70;;;;;;;;;;5072679;28;20043;-74
2024/03/15 09:36:52;;;;;;;14.57;10.70;;;;;;;;;;5075096;28;20028;-74
2024/03/15 09:39:18;;;;;;;15.07;11.23;;;;;;;;;;5073986;28;20525;-74
2024/03/15 09:41:44;;;;;;;14.82;10.68;;;;;;;;;;5073531;28;20029;-74
2024/03/15 09:44:11;;;;;;;15.23;9.52;;;;;;;;;;5074689;28;20039;-75
2024/03/15 09:46:37;;;;;;;15.07;9.98;;;;;;;;;;5076029;28;20477;-75
2024/03/15 09:49:03;;;;;;;10.68;7.40;;;;;;;;;;5073377;28;20025;-75
2024/03/15 09:51:28;;;;;;;16.63;10.63;;;;;;;;;;5070928;28;20074;-74
2024/03/15 09:53:54;;;;;;;15.55;9.88;;;;;;;;;;5081229;28;20025;-75
2024/03/15 09:56:19;;;;;;;17.35;11.73;;;;;;;;;;5077265;28;20029;-74
2024/03/15 09:58:51;;;;;;;18.20;11.57;;;;;;;;;;5075716;28;20036;-74
2024/03/15 10:01:17;;;;;;;18.25;13.38;;;;;;;;;;5079172;28;20033;-75
2024/03/15 10:03:43;;;;;;;20.42;13.77;;;;;;;;;;5077959;28;20020;-75
2024/03/15 10:06:09;;;;;;;16.90;11.45;;;;;;;;;;5078965;28;20404;-74
2024/03/15 10:08:36;;;;;;;17.70;11.35;;;;;;;;;;5071651;28;20024;-74
2024/03/15 10:11:02;;;;;;;18.60;11.20;;;;;;;;;;5071707;28;20508;-75
2024/03/15 10:13:28;;;;;;;18.73;11.70;;;;;;;;;;5071109;28;20041;-74
2024/03/15 10:15:53;;;;;;;17.05;10.38;;;;;;;;;;5074498;28;20040;-75
2024/03/15 10:18:18;;;;;;;13.77;10.52;;;;;;;;;;5071509;28;20035;-75
2024/03/15 10:20:46;;;;;;;15.45;10.55;;;;;;;;;;5071241;28;20588;-74
2024/03/15 10:23:12;;;;;;;21.92;11.60;;;;;;;;;;5079918;28;20039;-74
2024/03/15 10:25:37;;;;;;;13.50;10.32;;;;;;;;;;5078501;28;20081;-75
2024/03/15 10:28:03;;;;;;;11.77;8.73;;;;;;;;;;5071988;28;20090;-75
2024/03/15 10:30:29;;;;;;;9.93;7.95;;;;;;;;;;5071053;28;20052;-75
2024/03/15 10:32:57;;;;;;;11.13;7.68;;;;;;;;;;5070962;28;20115;-75
2024/03/15 10:35:22;;;;;;;9.32;6.50;;;;;;;;;;5074047;28;20606;-74
2024/03/15 10:37:48;;;;;;;11.68;7.40;;;;;;;;;;5074455;28;20058;-74
2024/03/15 10:40:14;;;;;;;10.30;6.97;;;;;;;;;;5071128;28;20040;-74
2024/03/15 10:42:41;;;;;;;11.77;7.38;;;;;;;;;;5074228;28;20020;-74
2024/03/15 10:45:07;;;;;;;10.27;6.82;;;;;;;;;;5079305;28;20024;-75
2024/03/15 10:47:33;;;;;;;10.15;6.40;;;;;;;;;;5073972;28;20090;-75
2024/03/15 10:49:58;;;;;;;11.50;7.13;;;;;;;;;;5072945;28;20049;-74
2024/03/15 10:52:24;;;;;;;9.88;7.03;;;;;;;;;;5075961;28;20054;-75
2024/03/15 10:54:50;;;;;;;10.77;7.13;;;;;;;;;;5078344;28;20480;-75
2024/03/15 10:57:15;;;;;;;12.30;7.30;;;;;;;;;;5073598;28;20036;-74
2024/03/15 10:59:42;;;;;;;12.05;7.20;;;;;;;;;;5077184;28;20233;-74
2024/03/15 11:02:08;;;;;;;12.07;7.78;;;;;;;;;;5074249;28;20036;-75
2024/03/15 11:04:34;;;;;;;11.43;6.18;;;;;;;;;;5072831;28;20039;-75
2024/03/15 11:07:00;;;;;;;10.52;6.60;;;;;;;;;;5077624;28;20029;-75
2024/03/15 11:09:27;;;;;;;12.48;6.43;;;;;;;;;;5070742;28;20037;-75
2024/03/15 11:12:02;;;;;;;6.68;4.72;;;;;;;;;;5070035;28;20040;-75
2024/03/15 11:14:30;;;;;;;8.27;5.35;;;;;;;;;;5070293;28;20036;-75
2024/03/15 11:17:00;;;;;;;5.82;4.38;;;;;;;;;;5073131;28;20116;-75
2024/03/15 11:19:25;;;;;;;7.22;5.20;;;;;;;;;;5070167;28;20044;-75
2024/03/15 11:22:00;;;;;;;9.65;5.57;;;;;;;;;;5070140;28;20031;-75
2024/03/15 11:24:26;;;;;;;8.20;5.50;;;;;;;;;;5081969;28;20028;-74
2024/03/15 11:27:01;;;;;;;8.38;5.50;;;;;;;;;;5079312;28;20035;-75
2024/03/15 11:29:32;;;;;;;11.20;6.15;;;;;;;;;;5076850;28;20093;-74
2024/03/15 11:31:57;;;;;;;15.37;9.13;;;;;;;;;;5077450;28;20044;-74
2024/03/15 11:34:22;;;;;;;8.10;4.88;;;;;;;;;;5081709;28;20038;-74
2024/03/15 11:36:48;;;;;;;6.82;4.45;;;;;;;;;;5073901;28;20802;-75
2024/03/15 11:39:14;;;;;;;9.45;6.60;;;;;;;;;;5074873;28;20067;-74
2024/03/15 11:41:39;;;;;;;6.90;4.47;;;;;;;;;;5071134;28;20060;-74
2024/03/15 11:44:04;;;;;;;12.80;8.48;;;;;;;;;;5071129;28;20067;-74
2024/03/15 11:46:31;;;;;;;8.50;5.43;;;;;;;;;;5084900;28;20024;-75
2024/03/15 11:49:00;;;;;;;6.97;4.25;;;;;;;;;;5078120;28;20078;-75
2024/03/15 11:51:25;;;;;;;6.15;4.07;;;;;;;;;;5078062;28;20044;-75
2024/03/15 11:53:50;;;;;;;9.40;4.38;;;;;;;;;;5075914;28;20107;-75
2024/03/15 11:56:16;;;;;;;6.20;4.33;;;;;;;;;;5071979;28;20033;-75
2024/03/15 11:58:41;;;;;;;7.68;4.35;;;;;;;;;;5069762;28;20274;-75
2024/03/15 12:01:06;;;;;;;7.10;4.07;;;;;;;;;;5069745;28;20052;-74
2024/03/15 12:03:32;;;;;;;7.75;4.82;;;;;;;;;;5073556;28;20508;-75
2024/03/15 12:06:00;;;;;;;7.32;4.72;;;;;;;;;;5072962;28;20038;-75
2024/03/15 12:08:25;;;;;;;7.55;5.22;;;;;;;;;;5076388;28;20119;-75
2024/03/15 12:10:51;;;;;;;11.25;7.25;;;;;;;;;;5074004;28;20111;-75
2024/03/15 12:13:21;;;;;;;8.45;5.72;;;;;;;;;;5069916;28;20040;-74
2024/03/15 12:15:46;;;;;;;9.38;6.13;;;;;;;;;;5079739;28;20028;-75
2024/03/15 12:18:15;;;;;;;7.85;5.65;;;;;;;;;;5073697;28;20400;-75
2024/03/15 12:20:41;;;;;;;11.27;7.85;;;;;;;;;;5076787;28;20020;-75
2024/03/15 12:23:07;;;;;;;8.23;5.75;;;;;;;;;;5082091;28;20473;-75
2024/03/15 12:25:32;;;;;;;9.60;5.00;;;;;;;;;;5081176;28;20403;-75
2024/03/15 12:27:58;;;;;;;6.97;5.22;;;;;;;;;;5073895;28;20033;-75
2024/03/15 12:30:24;;;;;;;9.30;6.22;;;;;;;;;;5071548;28;20048;-75
2024/03/15 12:32:49;;;;;;;8.13;4.47;;;;;;;;;;5071468;28;20029;-75
2024/03/15 12:35:14;;;;;;;7.45;5.15;;;;;;;;;;5072843;28;20109;-75
2024/03/15 12:37:40;;;;;;;8.18;5.53;;;;;;;;;;5073016;28;20102;-75
2024/03/15 12:40:13;;;;;;;9.02;6.15;;;;;;;;;;5085438;28;20503;-75
2024/03/15 12:42:38;;;;;;;7.30;5.00;;;;;;;;;;5076556;28;20039;-75
2024/03/15 12:45:03;;;;;;;5.88;3.42;;;;;;;;;;5082462;28;20107;-75
2024/03/15 12:47:32;;;;;;;6.82;3.65;;;;;;;;;;5084208;28;20024;-75
2024/03/15 12:49:57;;;;;;;6.18;3.45;;;;;;;;;;5081097;28;20024;-75
2024/03/15 12:52:22;;;;;;;4.87;2.63;;;;;;;;;;5079834;28;20422;-75
2024/03/15 12:54:47;;;;;;;4.10;3.08;;;;;;;;;;5076296;28;20282;-75
2024/03/15 12:57:13;;;;;;;8.10;4.60;;;;;;;;;;5081251;28;20059;-75
2024/03/15 12:59:38;;;;;;;6.30;3.47;;;;;;;;;;5075608;28;20309;-75
2024/03/15 13:02:04;;;;;;;6.17;3.40;;;;;;;;;;5075792;28;21093;-75
2024/03/15 13:04:30;;;;;;;6.85;3.35;;;;;;;;;;5072486;28;20706;-75
2024/03/15 13:06:55;;;;;;;6.47;3.70;;;;;;;;;;5082731;28;20048;-75
2024/03/15 13:09:21;;;;;;;5.63;3.50;;;;;;;;;;5077784;28;20309;-75
2024/03/15 13:11:46;;;;;;;6.25;4.03;;;;;;;;;;5074987;28;20024;-75
2024/03/15 13:14:12;;;;;;;5.97;3.63;;;;;;;;;;5076762;28;20028;-75
2024/03/15 13:16:38;;;;;;;7.20;3.90;;;;;;;;;;5077229;28;20044;-75
2024/03/15 13:19:05;;;;;;;5.93;3.95;;;;;;;;;;5076453;28;20119;-75
2024/03/15 13:21:30;;;;;;;8.13;5.80;;;;;;;;;;5077334;28;20020;-75
2024/03/15 13:23:56;;;;;;;7.00;3.95;;;;;;;;;;5079049;28;20520;-75
2024/03/15 13:26:24;;;;;;;5.57;3.17;;;;;;;;;;5072347;28;20686;-75
2024/03/15 13:28:53;;;;;;;6.55;3.88;;;;;;;;;;5072597;28;20613;-75
2024/03/15 13:31:18;;;;;;;6.15;3.33;;;;;;;;;;5072363;28;20028;-74
2024/03/15 13:33:43;;;;;;;7.45;4.18;;;;;;;;;;5076223;28;20044;-75
2024/03/15 13:36:09;;;;;;;5.43;2.80;;;;;;;;;;5074633;28;20033;-75
2024/03/15 13:38:36;;;;;;;6.57;3.35;;;;;;;;;;5073930;28;20278;-74
2024/03/15 13:41:03;;;;;;;7.43;4.35;;;;;;;;;;5081052;28;20499;-75
2024/03/15 13:43:29;;;;;;;10.50;4.47;;;;;;;;;;5078630;28;20574;-75
2024/03/15 13:45:57;;;;;;;7.30;3.90;;;;;;;;;;5075203;28;20029;-75
2024/03/15 13:48:22;;;;;;;5.07;2.97;;;;;;;;;;5074957;28;20024;-75
2024/03/15 13:50:47;;;;;;;8.47;2.73;;;;;;;;;;5075252;28;20476;-75
2024/03/15 13:53:12;;;;;;;4.47;2.50;;;;;;;;;;5078974;28;20271;-75
2024/03/15 13:55:37;;;;;;;5.30;2.90;;;;;;;;;;5079727;28;20277;-75
2024/03/15 13:58:03;;;;;;;8.27;5.30;;;;;;;;;;5072871;28;20271;-75
2024/03/15 14:00:37;;;;;;;5.70;3.70;;;;;;;;;;5071654;28;20067;-75
2024/03/15 14:03:06;;;;;;;18.10;12.85;;;;;;;;;;5074001;28;20035;-75
2024/03/15 14:05:37;;;;;;;9.40;3.85;;;;;;;;;;5072646;28;20111;-75
2024/03/15 14:08:07;;;;;;;7.18;5.00;;;;;;;;;;5071955;28;20036;-75
2024/03/15 14:10:32;;;;;;;6.35;3.58;;;;;;;;;;5071897;28;20448;-75
2024/03/15 14:12:58;;;;;;;6.28;2.95;;;;;;;;;;5071470;28;20099;-75
2024/03/15 14:15:23;;;;;;;7.07;4.50;;;;;;;;;;5072376;28;20492;-74
2024/03/15 14:17:51;;;;;;;8.40;5.25;;;;;;;;;;5072817;28;20437;-75
2024/03/15 14:20:16;;;;;;;5.95;3.75;;;;;;;;;;5076055;28;20622;-75
2024/03/15 14:22:42;;;;;;;6.28;3.65;;;;;;;;;;5076853;28;20029;-75